createdAt,value
2018-03-21T00:01:16.136Z,6.57
2018-03-21T00:03:44.194Z,7.30
2018-03-21T00:06:12.450Z,7.80
2018-03-21T00:08:43.972Z,7.60
2018-03-21T00:11:12.367Z,4.87
2018-03-21T00:13:40.637Z,6.00
2018-03-21T00:16:09.686Z,5.87
2018-03-21T00:18:38.543Z,8.03
2018-03-21T00:21:07.057Z,8.73
2018-03-21T00:23:34.538Z,8.83
2018-03-21T00:26:02.556Z,8.37
2018-03-21T00:28:32.167Z,7.43
2018-03-21T00:31:00.824Z,6.43
2018-03-21T00:33:28.310Z,6.93
2018-03-21T00:35:55.938Z,8.07
2018-03-21T00:38:25.224Z,14.27
2018-03-21T00:40:52.733Z,8.63
2018-03-21T00:43:21.864Z,5.47
2018-03-21T00:45:49.324Z,9.37
2018-03-21T00:48:17.861Z,9.40
2018-03-21T00:50:45.331Z,9.37
2018-03-21T00:53:13.623Z,10.07
2018-03-21T00:55:42.531Z,11.97
2018-03-21T00:58:11.160Z,7.23
2018-03-21T01:00:38.635Z,9.20
2018-03-21T01:03:06.132Z,9.43
2018-03-21T01:05:33.614Z,7.57
2018-03-21T01:08:02.662Z,10.00
2018-03-21T01:10:30.171Z,7.97
2018-03-21T01:12:59.359Z,13.83
2018-03-21T01:15:28.470Z,11.90
2018-03-21T01:17:58.200Z,8.60
2018-03-21T01:20:25.760Z,6.77
2018-03-21T01:22:53.536Z,6.13
2018-03-21T01:25:21.003Z,8.97
2018-03-21T01:27:48.755Z,7.83
2018-03-21T01:30:17.236Z,7.43
2018-03-21T01:32:44.714Z,9.17
2018-03-21T01:35:12.197Z,7.03
2018-03-21T01:37:40.443Z,6.63
2018-03-21T01:40:07.928Z,7.73
2018-03-21T01:42:36.649Z,10.93
2018-03-21T01:45:05.956Z,9.23
2018-03-21T01:47:34.330Z,7.43
2018-03-21T01:50:04.003Z,9.20
2018-03-21T01:52:32.205Z,7.53
2018-03-21T01:54:59.676Z,8.23
2018-03-21T01:57:27.167Z,6.67
2018-03-21T01:59:55.558Z,9.47
2018-03-21T02:02:25.031Z,7.87
2018-03-21T02:04:54.013Z,12.53
2018-03-21T02:07:23.058Z,7.40
2018-03-21T02:09:50.530Z,7.97
2018-03-21T02:12:18.925Z,10.73
2018-03-21T02:14:47.277Z,8.50
2018-03-21T02:17:15.800Z,8.73
2018-03-21T02:19:43.285Z,11.93
2018-03-21T02:22:11.576Z,11.40
2018-03-21T02:24:39.106Z,10.13
2018-03-21T02:27:06.608Z,8.73
2018-03-21T02:29:34.132Z,10.03
2018-03-21T02:32:02.438Z,7.60
2018-03-21T02:34:29.932Z,9.63
2018-03-21T02:36:57.493Z,9.57
2018-03-21T02:39:25.214Z,10.87
2018-03-21T02:41:52.717Z,8.63
2018-03-21T02:44:20.212Z,12.60
2018-03-21T02:46:47.703Z,9.90
2018-03-21T02:49:15.207Z,16.37
2018-03-21T02:51:44.061Z,12.50
2018-03-21T02:54:11.551Z,13.17
2018-03-21T02:56:39.770Z,11.03
2018-03-21T02:59:07.263Z,11.37
2018-03-21T03:01:34.801Z,9.03
2018-03-21T03:04:03.074Z,13.30
2018-03-21T03:06:30.602Z,9.03
2018-03-21T03:08:58.184Z,11.97
2018-03-21T03:11:25.711Z,10.40
2018-03-21T03:13:53.222Z,9.83
2018-03-21T03:16:20.704Z,8.87
2018-03-21T03:18:49.320Z,11.97
2018-03-21T03:21:16.843Z,8.20
2018-03-21T03:23:45.070Z,10.77
2018-03-21T03:26:12.613Z,7.13
2018-03-21T03:28:40.220Z,6.47
2018-03-21T03:31:07.931Z,9.50
2018-03-21T03:33:35.700Z,13.40
2018-03-21T03:36:03.505Z,9.23
2018-03-21T03:38:31.262Z,9.27
2018-03-21T03:40:58.951Z,10.37
2018-03-21T03:43:28.033Z,8.80
2018-03-21T03:45:56.557Z,7.97
2018-03-21T03:48:24.422Z,11.37
2018-03-21T03:50:51.971Z,13.53
2018-03-21T03:53:19.549Z,6.83
2018-03-21T03:55:47.295Z,10.13
2018-03-21T03:58:14.913Z,10.67
2018-03-21T04:00:43.435Z,14.03
2018-03-21T04:03:11.044Z,10.97
2018-03-21T04:05:38.621Z,12.77
2018-03-21T04:08:07.211Z,12.53
2018-03-21T04:10:34.839Z,10.53
2018-03-21T04:13:02.595Z,9.97
2018-03-21T04:15:30.287Z,9.23
2018-03-21T04:17:58.662Z,14.03
2018-03-21T04:20:27.184Z,10.73
2018-03-21T04:22:55.036Z,9.73
2018-03-21T04:25:22.903Z,11.50
2018-03-21T04:27:50.577Z,9.57
2018-03-21T04:30:18.437Z,12.17
2018-03-21T04:32:46.397Z,13.43
2018-03-21T04:35:14.880Z,9.93
2018-03-21T04:37:42.760Z,15.87
2018-03-21T04:40:10.510Z,10.67
2018-03-21T04:42:38.008Z,7.90
2018-03-21T04:45:05.551Z,13.47
2018-03-21T04:47:33.186Z,13.83
2018-03-21T04:50:00.706Z,19.87
2018-03-21T04:52:29.216Z,11.80
2018-03-21T04:54:56.687Z,14.23
2018-03-21T04:57:24.297Z,8.40
2018-03-21T04:59:52.601Z,13.27
2018-03-21T05:02:20.107Z,10.27
2018-03-21T05:04:47.694Z,15.07
2018-03-21T05:07:15.964Z,11.37
2018-03-21T05:09:44.293Z,14.63
2018-03-21T05:12:11.854Z,9.83
2018-03-21T05:14:39.415Z,13.63
2018-03-21T05:17:07.232Z,10.23
2018-03-21T05:19:34.755Z,9.70
2018-03-21T05:22:02.271Z,9.63
2018-03-21T05:24:29.864Z,9.23
2018-03-21T05:26:57.375Z,13.53
2018-03-21T05:29:25.256Z,17.47
2018-03-21T05:31:52.914Z,13.57
2018-03-21T05:34:20.465Z,6.53
2018-03-21T05:36:47.953Z,9.93
2018-03-21T05:39:15.571Z,13.33
2018-03-21T05:41:43.165Z,13.20
2018-03-21T05:44:10.682Z,13.73
2018-03-21T05:46:38.162Z,18.33
2018-03-21T05:49:05.658Z,11.57
2018-03-21T05:51:33.185Z,12.47
2018-03-21T05:54:01.916Z,14.10
2018-03-21T05:56:30.168Z,11.93
2018-03-21T05:58:58.398Z,11.80
2018-03-21T06:01:25.945Z,9.87
2018-03-21T06:03:53.430Z,16.23
2018-03-21T06:06:24.508Z,12.77
2018-03-21T06:08:52.240Z,13.30
2018-03-21T06:11:19.763Z,14.13
2018-03-21T06:13:47.332Z,10.33
2018-03-21T06:16:14.816Z,10.20
2018-03-21T06:18:42.316Z,10.43
2018-03-21T06:21:10.159Z,11.93
2018-03-21T06:23:38.407Z,8.87
2018-03-21T06:26:05.983Z,7.83
2018-03-21T06:28:33.456Z,12.50
2018-03-21T06:31:00.964Z,10.43
2018-03-21T06:33:28.450Z,8.50
2018-03-21T06:35:55.939Z,9.60
2018-03-21T06:38:24.155Z,15.70
2018-03-21T06:40:53.189Z,10.13
2018-03-21T06:43:20.650Z,14.53
2018-03-21T06:45:48.893Z,12.63
2018-03-21T06:48:16.386Z,11.97
2018-03-21T06:50:44.642Z,14.53
2018-03-21T06:53:12.153Z,20.20
2018-03-21T06:55:39.658Z,24.73
2018-03-21T06:58:07.149Z,24.87
2018-03-21T07:00:34.669Z,26.37
2018-03-21T07:03:02.255Z,29.67
2018-03-21T07:05:29.795Z,35.27
2018-03-21T07:07:58.074Z,42.10
2018-03-21T07:10:26.429Z,39.83
2018-03-21T07:12:53.923Z,42.63
2018-03-21T07:15:33.520Z,43.63
2018-03-21T07:18:01.018Z,51.70
2018-03-21T07:20:28.548Z,61.63
2018-03-21T07:22:56.007Z,61.03
2018-03-21T07:25:23.494Z,76.30
2018-03-21T07:27:50.974Z,85.23
2018-03-21T07:30:18.505Z,92.37
2018-03-21T07:32:45.995Z,90.60
2018-03-21T07:35:13.487Z,106.83
2018-03-21T07:37:40.979Z,102.63
2018-03-21T07:54:30.791Z,113.63
2018-03-21T07:56:58.282Z,106.20
2018-03-21T07:59:25.774Z,125.67
2018-03-21T08:01:53.299Z,114.53
2018-03-21T08:04:20.783Z,127.60
2018-03-21T08:06:48.260Z,90.90
2018-03-21T08:09:15.737Z,77.00
2018-03-21T08:11:44.004Z,72.23
2018-03-21T08:14:11.477Z,70.67
2018-03-21T08:16:39.805Z,69.70
2018-03-21T08:19:08.102Z,74.20
2018-03-21T08:21:35.614Z,77.20
2018-03-21T08:24:03.080Z,84.83
2018-03-21T08:26:30.581Z,80.83
2018-03-21T08:28:58.229Z,77.13
2018-03-21T08:31:25.947Z,80.63
2018-03-21T08:33:54.290Z,91.90
2018-03-21T08:36:22.566Z,99.40
2018-03-21T08:38:50.836Z,75.03
2018-03-21T08:41:19.134Z,103.97
2018-03-21T08:43:47.433Z,84.60
2018-03-21T08:46:14.940Z,78.63
2018-03-21T08:48:43.200Z,81.37
2018-03-21T08:51:10.680Z,85.20
2018-03-21T08:53:38.994Z,77.80
2018-03-21T08:56:06.495Z,68.40
2018-03-21T08:58:33.982Z,64.47
2018-03-21T09:01:02.238Z,66.00
2018-03-21T09:03:30.504Z,60.03
2018-03-21T09:05:58.099Z,48.93
2018-03-21T09:08:25.657Z,45.90
2018-03-21T09:10:53.152Z,43.43
2018-03-21T09:13:20.761Z,37.67
2018-03-21T09:15:49.058Z,34.57
2018-03-21T09:18:16.946Z,32.50
2018-03-21T09:20:44.416Z,36.63
2018-03-21T09:23:11.915Z,30.93
2018-03-21T09:25:40.248Z,35.97
2018-03-21T09:28:07.714Z,39.03
2018-03-21T09:30:35.272Z,37.17
2018-03-21T09:33:02.966Z,35.47
2018-03-21T09:35:31.375Z,38.07
2018-03-21T09:38:01.001Z,37.00
2018-03-21T09:40:28.691Z,33.77
2018-03-21T09:42:56.235Z,35.70
2018-03-21T09:45:23.775Z,32.93
2018-03-21T09:47:51.270Z,36.33
2018-03-21T09:50:19.570Z,31.17
2018-03-21T09:52:47.089Z,31.83
2018-03-21T09:55:14.704Z,29.37
2018-03-21T09:57:42.326Z,33.53
2018-03-21T10:00:10.835Z,31.47
2018-03-21T10:02:38.808Z,29.63
2018-03-21T10:05:06.493Z,28.03
2018-03-21T10:07:34.339Z,39.23
2018-03-21T10:10:02.089Z,29.97
2018-03-21T10:12:29.864Z,27.17
2018-03-21T10:14:57.665Z,29.30
2018-03-21T10:17:25.493Z,28.40
2018-03-21T10:19:53.124Z,28.47
2018-03-21T10:22:21.704Z,30.27
2018-03-21T10:24:49.420Z,30.83
2018-03-21T10:27:17.322Z,25.93
2018-03-21T10:29:46.085Z,34.40
2018-03-21T10:32:14.208Z,37.87
2018-03-21T10:34:41.847Z,26.73
2018-03-21T10:37:10.238Z,36.80
2018-03-21T10:39:38.724Z,34.60
2018-03-21T10:42:06.641Z,35.97
2018-03-21T10:44:34.303Z,32.23
2018-03-21T10:47:02.003Z,42.03
2018-03-21T10:49:30.010Z,47.33
2018-03-21T10:51:57.874Z,39.03
2018-03-21T10:54:25.455Z,48.67
2018-03-21T10:56:53.235Z,47.93
2018-03-21T10:59:21.898Z,33.80
2018-03-21T11:01:54.984Z,38.27
2018-03-21T11:04:22.626Z,36.13
2018-03-21T11:06:50.367Z,39.87
2018-03-21T11:09:18.636Z,37.70
2018-03-21T11:11:46.549Z,33.30
2018-03-21T11:14:14.199Z,43.57
2018-03-21T11:16:42.507Z,40.03
2018-03-21T11:19:11.132Z,40.93
2018-03-21T11:21:38.728Z,39.07
2018-03-21T11:24:07.110Z,32.70
2018-03-21T11:26:34.710Z,35.67
2018-03-21T11:29:02.253Z,66.13
2018-03-21T11:31:30.841Z,33.47
2018-03-21T11:33:58.392Z,33.17
2018-03-21T11:36:27.104Z,35.40
2018-03-21T11:38:54.976Z,31.53
2018-03-21T11:41:22.876Z,37.47
2018-03-21T11:43:50.756Z,23.57
2018-03-21T11:46:18.570Z,31.80
2018-03-21T11:48:46.143Z,27.60
2018-03-21T11:51:13.812Z,25.80
2018-03-21T11:53:41.623Z,26.07
2018-03-21T11:56:09.200Z,27.77
2018-03-21T11:58:36.811Z,27.00
2018-03-21T12:01:05.250Z,25.00
2018-03-21T12:03:33.032Z,31.30
2018-03-21T12:06:00.680Z,29.87
2018-03-21T12:08:28.592Z,33.83
2018-03-21T12:10:56.370Z,23.87
2018-03-21T12:13:24.996Z,23.30
2018-03-21T12:15:53.300Z,29.60
2018-03-21T12:28:06.774Z,23.67
2018-03-21T12:30:34.601Z,30.43
2018-03-21T12:33:02.464Z,25.17
2018-03-21T12:35:30.345Z,30.63
2018-03-21T12:38:01.034Z,24.60
2018-03-21T12:40:29.598Z,23.87
2018-03-21T12:42:58.123Z,22.63
2018-03-21T12:45:25.751Z,23.47
2018-03-21T12:47:53.394Z,23.20
2018-03-21T12:50:20.930Z,19.13
2018-03-21T12:52:48.514Z,19.30
2018-03-21T12:55:16.958Z,19.63
2018-03-21T12:57:44.906Z,23.57
2018-03-21T13:00:12.553Z,26.17
2018-03-21T13:02:40.891Z,22.10
2018-03-21T13:05:09.324Z,22.50
2018-03-21T13:07:36.962Z,26.57
2018-03-21T13:10:04.722Z,26.30
2018-03-21T13:12:33.119Z,20.57
2018-03-21T13:15:00.738Z,19.13
2018-03-21T13:17:28.925Z,22.43
2018-03-21T13:19:57.684Z,25.97
2018-03-21T13:22:25.191Z,25.47
2018-03-21T13:24:53.527Z,18.13
2018-03-21T13:27:21.342Z,25.30
2018-03-21T13:29:49.544Z,22.63
2018-03-21T13:32:17.403Z,28.20
2018-03-21T13:34:45.038Z,24.40
2018-03-21T13:37:12.943Z,23.83
2018-03-21T13:39:41.410Z,20.33
2018-03-21T13:42:09.103Z,26.13
2018-03-21T13:44:37.657Z,23.63
2018-03-21T13:47:06.239Z,20.27
2018-03-21T13:49:33.726Z,24.27
2018-03-21T13:52:02.106Z,28.07
2018-03-21T13:54:29.598Z,22.53
2018-03-21T13:56:57.403Z,21.37
2018-03-21T13:59:25.117Z,20.10
2018-03-21T14:01:52.632Z,20.23
2018-03-21T14:04:20.119Z,22.53
2018-03-21T14:06:47.594Z,21.27
2018-03-21T14:09:15.079Z,22.93
2018-03-21T14:11:42.578Z,21.50
2018-03-21T14:14:10.823Z,19.97
2018-03-21T14:16:38.435Z,18.07
2018-03-21T14:19:05.936Z,22.70
2018-03-21T14:21:33.524Z,23.90
2018-03-21T14:24:01.973Z,22.00
2018-03-21T14:26:29.581Z,24.23
2018-03-21T14:28:57.055Z,20.00
2018-03-21T14:31:24.549Z,21.90
2018-03-21T14:33:52.140Z,22.93
2018-03-21T14:36:19.618Z,21.57
2018-03-21T14:38:47.126Z,23.07
2018-03-21T14:41:14.691Z,27.03
2018-03-21T14:43:43.009Z,21.17
2018-03-21T14:46:10.483Z,20.63
2018-03-21T14:48:38.080Z,18.57
2018-03-21T14:51:06.420Z,23.43
2018-03-21T14:53:33.894Z,20.80
2018-03-21T14:56:02.145Z,17.67
2018-03-21T14:58:29.625Z,22.30
2018-03-21T15:00:57.241Z,19.57
2018-03-21T15:03:24.737Z,21.80
2018-03-21T15:05:52.232Z,18.67
2018-03-21T15:08:20.528Z,17.17
2018-03-21T15:10:48.410Z,16.97
2018-03-21T15:13:16.042Z,16.03
2018-03-21T15:15:43.534Z,17.83
2018-03-21T15:18:11.089Z,19.63
2018-03-21T15:20:38.590Z,18.60
2018-03-21T15:23:06.835Z,22.60
2018-03-21T15:25:34.624Z,14.53
2018-03-21T15:28:02.888Z,17.73
2018-03-21T15:30:31.003Z,18.07
2018-03-21T15:32:58.530Z,17.27
2018-03-21T15:35:26.849Z,17.90
2018-03-21T15:37:54.710Z,13.43
2018-03-21T15:40:24.058Z,15.60
2018-03-21T15:42:51.552Z,13.17
2018-03-21T15:45:19.422Z,20.57
2018-03-21T15:47:46.905Z,18.40
2018-03-21T15:50:14.436Z,21.30
2018-03-21T15:52:42.844Z,13.17
2018-03-21T15:55:10.334Z,17.27
2018-03-21T15:57:38.625Z,20.30
2018-03-21T16:00:06.172Z,18.03
2018-03-21T16:02:34.588Z,16.17
2018-03-21T16:05:02.252Z,16.80
2018-03-21T16:07:29.839Z,17.20
2018-03-21T16:09:57.459Z,14.37
2018-03-21T16:12:24.973Z,19.27
2018-03-21T16:14:52.500Z,11.07
2018-03-21T16:17:20.095Z,16.33
2018-03-21T16:19:48.360Z,14.50
2018-03-21T16:22:16.834Z,10.60
2018-03-21T16:24:44.406Z,17.93
2018-03-21T16:27:12.672Z,18.00
2018-03-21T16:29:40.158Z,19.43
2018-03-21T16:32:08.550Z,10.67
2018-03-21T16:34:36.078Z,11.30
2018-03-21T16:37:04.395Z,15.00
2018-03-21T16:39:31.874Z,19.60
2018-03-21T16:41:59.377Z,17.40
2018-03-21T16:44:28.860Z,15.17
2018-03-21T16:46:56.341Z,16.43
2018-03-21T16:49:23.832Z,14.53
2018-03-21T16:51:51.343Z,16.17
2018-03-21T16:54:18.888Z,16.83
2018-03-21T16:56:47.155Z,15.73
2018-03-21T16:59:14.661Z,15.37
2018-03-21T17:01:42.188Z,15.57
2018-03-21T17:04:10.484Z,13.13
2018-03-21T17:06:37.961Z,13.13
2018-03-21T17:09:05.504Z,12.43
2018-03-21T17:11:33.021Z,13.80
2018-03-21T17:14:00.538Z,14.20
2018-03-21T17:16:28.034Z,17.93
2018-03-21T17:18:55.530Z,21.73
2018-03-21T17:21:23.030Z,17.73
2018-03-21T17:23:50.782Z,14.83
2018-03-21T17:26:18.270Z,21.57
2018-03-21T17:28:45.811Z,22.73
2018-03-21T17:31:13.362Z,12.20
2018-03-21T17:33:40.893Z,18.00
2018-03-21T17:36:08.375Z,21.63
2018-03-21T17:38:35.992Z,14.97
2018-03-21T17:52:30.042Z,16.50
2018-03-21T17:54:58.331Z,17.33
2018-03-21T17:57:25.808Z,13.70
2018-03-21T17:59:53.272Z,20.00
2018-03-21T18:02:20.782Z,19.07
2018-03-21T18:04:49.777Z,23.27
2018-03-21T18:07:18.056Z,18.87
2018-03-21T18:09:45.554Z,25.47
2018-03-21T18:12:13.139Z,28.17
2018-03-21T18:14:40.622Z,23.60
2018-03-21T18:17:08.901Z,31.73
2018-03-21T18:19:37.471Z,18.67
2018-03-21T18:22:05.752Z,23.80
2018-03-21T18:24:34.024Z,22.93
2018-03-21T18:27:01.505Z,21.93
2018-03-21T18:29:29.001Z,22.20
2018-03-21T18:31:56.456Z,22.63
2018-03-21T18:34:23.961Z,20.63
2018-03-21T18:36:51.495Z,25.13
2018-03-21T18:39:19.009Z,17.57
2018-03-21T18:41:46.527Z,25.17
2018-03-21T18:44:14.808Z,19.73
2018-03-21T18:46:43.067Z,18.57
2018-03-21T18:49:10.598Z,16.30
2018-03-21T18:51:38.084Z,22.97
2018-03-21T18:54:06.339Z,20.43
2018-03-21T18:56:33.846Z,19.47
2018-03-21T18:59:01.398Z,19.77
2018-03-21T19:01:28.872Z,25.03
2018-03-21T19:03:56.368Z,16.10
2018-03-21T19:06:23.863Z,16.03
2018-03-21T19:08:51.480Z,16.77
2018-03-21T19:11:18.964Z,20.47
2018-03-21T19:13:47.231Z,19.60
2018-03-21T19:16:15.519Z,21.60
2018-03-21T19:18:43.952Z,18.53
2018-03-21T19:21:11.465Z,16.50
2018-03-21T19:23:38.962Z,25.30
2018-03-21T19:26:06.460Z,18.87
2018-03-21T19:28:34.743Z,22.13
2018-03-21T19:31:02.535Z,20.23
2018-03-21T19:33:30.240Z,19.27
2018-03-21T19:35:57.921Z,20.10
2018-03-21T19:38:26.247Z,19.90
2018-03-21T19:40:53.891Z,15.33
2018-03-21T19:43:21.434Z,21.47
2018-03-21T19:45:48.945Z,24.90
2018-03-21T19:48:16.449Z,22.97
2018-03-21T19:50:43.955Z,24.37
2018-03-21T19:53:11.467Z,22.33
2018-03-21T19:55:38.966Z,25.43
2018-03-21T19:58:07.096Z,22.10
2018-03-21T20:00:34.970Z,20.47
2018-03-21T20:03:02.472Z,24.27
2018-03-21T20:05:29.993Z,21.30
2018-03-21T20:07:57.511Z,22.17
2018-03-21T20:10:25.820Z,16.00
2018-03-21T20:12:53.304Z,25.33
2018-03-21T20:15:20.814Z,18.73
2018-03-21T20:17:48.349Z,22.30
2018-03-21T20:20:16.588Z,29.60
2018-03-21T20:22:44.088Z,17.17
2018-03-21T20:25:12.334Z,24.17
2018-03-21T20:27:39.837Z,29.27
2018-03-21T20:43:07.377Z,29.13
2018-03-21T20:45:34.920Z,24.70
2018-03-21T20:48:03.318Z,26.67
2018-03-21T20:50:30.841Z,18.13
2018-03-21T20:52:59.077Z,26.50
2018-03-21T20:55:26.578Z,23.97
2018-03-21T20:57:54.065Z,25.27
2018-03-21T21:00:21.575Z,25.37
2018-03-21T21:02:49.880Z,21.87
2018-03-21T21:05:17.381Z,24.90
2018-03-21T21:07:44.974Z,28.93
2018-03-21T21:10:13.218Z,25.23
2018-03-21T21:12:41.532Z,24.53
2018-03-21T21:15:08.999Z,26.50
2018-03-21T21:17:37.029Z,31.37
2018-03-21T21:20:04.615Z,24.93
2018-03-21T21:22:32.894Z,23.60
2018-03-21T21:25:01.136Z,27.80
2018-03-21T21:27:28.639Z,30.00
2018-03-21T21:29:56.156Z,24.43
2018-03-21T21:32:23.648Z,23.80
2018-03-21T21:34:51.161Z,34.30
2018-03-21T21:37:19.421Z,27.23
2018-03-21T21:39:46.917Z,23.90
2018-03-21T21:42:15.179Z,27.63
2018-03-21T21:44:43.431Z,27.47
2018-03-21T21:47:10.927Z,23.93
2018-03-21T21:49:39.182Z,31.67
2018-03-21T21:52:06.675Z,24.60
2018-03-21T21:54:34.214Z,24.57
2018-03-21T21:57:02.566Z,23.37
2018-03-21T21:59:30.479Z,23.30
2018-03-21T22:01:58.052Z,25.47
2018-03-21T22:04:25.548Z,30.07
2018-03-21T22:06:53.062Z,27.57
2018-03-21T22:09:20.971Z,25.90
2018-03-21T22:11:48.518Z,31.10
2018-03-21T22:14:16.212Z,27.43
2018-03-21T22:16:44.469Z,31.67
2018-03-21T22:19:12.132Z,25.83
2018-03-21T22:21:39.750Z,30.73
2018-03-21T22:24:07.350Z,25.80
2018-03-21T22:26:34.883Z,27.67
2018-03-21T22:29:02.449Z,24.20
2018-03-21T22:31:30.012Z,30.60
2018-03-21T22:33:57.579Z,27.27
2018-03-21T22:36:25.092Z,31.30
2018-03-21T22:38:52.591Z,31.50
2018-03-21T22:41:20.210Z,27.37
2018-03-21T22:43:47.717Z,26.20
2018-03-21T22:46:16.103Z,27.00
2018-03-21T22:48:44.485Z,25.90
2018-03-21T22:51:12.779Z,36.53
2018-03-21T22:53:40.310Z,35.03
2018-03-21T22:56:08.638Z,27.20
2018-03-21T22:58:36.120Z,30.23
2018-03-21T23:01:03.789Z,24.77
2018-03-21T23:03:31.568Z,26.97
2018-03-21T23:05:59.967Z,31.47
2018-03-21T23:08:27.564Z,33.97
2018-03-21T23:10:55.123Z,26.50
2018-03-21T23:13:22.681Z,29.20
2018-03-21T23:15:50.291Z,24.30
2018-03-21T23:18:20.854Z,28.40
2018-03-21T23:20:48.506Z,31.10
2018-03-21T23:23:16.043Z,26.57
2018-03-21T23:25:43.569Z,30.10
2018-03-21T23:28:12.812Z,30.63
2018-03-21T23:30:40.420Z,31.73
2018-03-21T23:33:09.228Z,32.57
2018-03-21T23:35:37.664Z,28.93
2018-03-21T23:38:05.397Z,31.33
2018-03-21T23:40:33.725Z,29.37
2018-03-21T23:43:01.252Z,30.60
2018-03-21T23:45:28.983Z,35.27
2018-03-21T23:47:56.632Z,32.70
2018-03-21T23:50:24.319Z,25.57
2018-03-21T23:52:51.951Z,30.33
2018-03-21T23:55:19.508Z,27.13
2018-03-21T23:57:47.126Z,29.20
